Time;durP1;ratioP1;P1;durP2;ratioP2;P2;SDS_P1;SDS_P2;PMS_P1;PMS_P2;Temp;Humidity;BMP_temperature;BMP_pressure;BME280_temperature;BME280_humidity;BME280_pressure;Samples;Min_cycle;Max_cycle;Signal;HPM_P1;HPM_P2
2022/06/05 00:02:07;;;;;;;;;;;21.00;74.10;;;20.34;69.14;96279.84;4264394;33;20150;-86
2022/06/05 00:04:39;;;;;;;;;;;21.00;74.00;;;20.35;68.95;96289.81;4266905;33;20125;-86
2022/06/05 00:07:12;;;;;;;;;;;21.00;74.10;;;20.34;69.28;96282.63;4266466;33;19924;-86
2022/06/05 00:09:46;;;;;;;;;;;21.00;74.10;;;20.33;69.24;96281.03;4291930;33;19972;-86
2022/06/05 00:12:16;;;;;;;;;;;21.00;74.10;;;20.34;68.98;96277.91;4266415;33;19917;-86
2022/06/05 00:14:45;;;;;;;;;;;21.00;74.10;;;20.33;69.32;96267.13;4266650;33;19901;-86
2022/06/05 00:17:18;;;;;;;;;;;21.00;74.10;;;20.32;68.93;96273.81;4290437;33;20127;-86
2022/06/05 00:19:49;;;;;;;;;;;21.00;74.10;;;20.33;69.17;96281.03;4290717;33;19902;-87
2022/06/05 00:22:17;;;;;;;;;;;21.00;74.10;;;20.31;68.76;96281.34;4266357;33;20359;-86
2022/06/05 00:24:46;;;;;;;;;;;21.00;74.10;;;20.32;69.10;96284.94;4290652;33;20188;-87
2022/06/05 00:27:26;;;;;;;;;;;21.00;74.00;;;20.32;69.18;96284.94;4290630;33;20115;-86
2022/06/05 00:30:10;;;;;;;;;;;21.00;74.00;;;20.32;69.16;96296.06;4265985;33;19971;-86
2022/06/05 00:32:43;;;;;;;;;;;21.00;74.00;;;20.31;69.01;96288.88;4290500;33;19945;-86
2022/06/05 00:35:16;;;;;;;;;;;21.00;74.00;;;20.30;68.92;96282.47;4266612;33;20039;-86
2022/06/05 00:37:53;;;;;;;;;;;21.00;73.90;;;20.31;68.68;96288.88;4293042;33;20118;-85
2022/06/05 00:40:48;;;;;;;;;;;21.00;74.00;;;20.31;69.06;96305.56;4268568;33;19902;-86
2022/06/05 00:43:19;;;;;;;;;;;21.00;73.90;;;20.31;68.72;96305.56;4269024;33;20184;-86
2022/06/05 00:45:48;;;;;;;;;;;21.00;73.90;;;20.30;68.87;96303.91;4292993;33;19902;-86
2022/06/05 00:48:18;;;;;;;;;;;21.00;73.90;;;20.29;69.00;96305.06;4268812;33;19901;-86
2022/06/05 00:50:47;;;;;;;;;;;21.00;73.90;;;20.30;68.92;96320.59;4268483;33;20073;-87
2022/06/05 00:53:16;;;;;;;;;;;21.00;73.90;;;20.30;68.83;96315.84;4268754;33;20105;-85
2022/06/05 00:55:48;;;;;;;;;;;21.00;73.90;;;20.30;68.95;96321.41;4268691;33;19924;-86
2022/06/05 00:58:16;;;;;;;;;;;21.00;73.90;;;20.28;68.76;96312.56;4268677;33;19902;-86
2022/06/05 01:00:48;;;;;;;;;;;21.00;73.90;;;20.29;68.86;96316.19;4268313;33;19909;-86
2022/06/05 01:03:18;;;;;;;;;;;21.00;73.90;;;20.30;68.82;96303.91;4293860;33;20094;-87
2022/06/05 01:05:47;;;;;;;;;;;21.00;73.90;;;20.29;68.99;96308.66;4268674;33;19901;-86
2022/06/05 01:08:16;;;;;;;;;;;21.00;73.80;;;20.29;69.01;96291.16;4268604;33;20226;-86
2022/06/05 01:10:55;;;;;;;;;;;21.00;73.90;;;20.30;69.02;96292.81;4268265;33;19909;-87
2022/06/05 01:13:36;;;;;;;;;;;21.00;73.90;;;20.28;68.97;96295.09;4268599;33;19908;-86
2022/06/05 01:16:20;;;;;;;;;;;21.00;73.80;;;20.29;69.01;96297.53;4292642;33;19909;-86
2022/06/05 01:18:53;;;;;;;;;;;21.00;73.80;;;20.27;68.77;96294.25;4292629;33;20277;-86
2022/06/05 01:21:42;;;;;;;;;;;21.00;73.80;;;20.28;69.11;96307.00;4268179;33;19901;-87
2022/06/05 01:24:23;;;;;;;;;;;21.00;73.90;;;20.28;68.67;96311.78;4268450;33;20148;-86
2022/06/05 01:26:56;;;;;;;;;;;21.00;74.00;;;20.28;68.93;96314.56;4268565;33;20078;-87
2022/06/05 01:29:27;;;;;;;;;;;21.00;73.90;;;20.28;68.80;96317.34;4292569;33;19909;-86
2022/06/05 01:31:58;;;;;;;;;;;21.00;73.90;;;20.27;68.99;96310.94;4292176;33;20124;-85
2022/06/05 01:34:31;;;;;;;;;;;21.00;73.90;;;20.26;68.86;96314.06;4268416;33;19974;-86
2022/06/05 01:37:03;;;;;;;;;;;21.00;73.80;;;20.27;69.04;96324.84;4268184;33;19901;-87
2022/06/05 01:39:36;;;;;;;;;;;21.00;73.90;;;20.27;69.13;96321.25;4292527;33;19924;-86
2022/06/05 01:42:08;;;;;;;;;;;21.00;73.90;;;20.26;68.95;96325.19;4292110;33;19901;-86
2022/06/05 01:44:39;;;;;;;;;;;21.00;73.90;;;20.27;68.58;96321.25;4268333;33;20060;-86
2022/06/05 01:47:13;;;;;;;;;;;21.00;73.90;;;20.27;69.04;96318.47;4267471;33;20145;-86
2022/06/05 01:49:45;;;;;;;;;;;21.00;74.00;;;20.27;69.13;96322.06;4292384;33;19972;-86
2022/06/05 01:52:16;;;;;;;;;;;20.90;74.00;;;20.26;69.04;96314.06;4292047;33;20046;-86
2022/06/05 01:54:48;;;;;;;;;;;20.90;74.00;;;20.26;68.74;96306.56;4268176;33;19902;-86
2022/06/05 01:57:18;;;;;;;;;;;21.00;74.00;;;20.26;68.92;96309.34;4292287;33;19901;-85
2022/06/05 01:59:49;;;;;;;;;;;21.00;74.00;;;20.26;68.99;96303.78;4268315;33;20129;-85
2022/06/05 02:02:20;;;;;;;;;;;20.90;74.00;;;20.26;69.15;96314.06;4268010;33;20183;-86
2022/06/05 02:04:51;;;;;;;;;;;21.00;74.10;;;20.26;69.06;96312.13;4267947;33;20078;-86
2022/06/05 02:07:23;;;;;;;;;;;21.00;74.00;;;20.25;68.99;96313.25;4267838;33;19938;-86
2022/06/05 02:09:53;;;;;;;;;;;21.00;74.00;;;20.26;69.15;96314.91;4267791;33;20310;-86
2022/06/05 02:12:23;;;;;;;;;;;21.00;74.00;;;20.26;68.96;96319.63;4291936;33;20269;-86
2022/06/05 02:14:52;;;;;;;;;;;21.00;74.00;;;20.26;68.97;96327.97;4292030;33;20109;-86
2022/06/05 02:17:20;;;;;;;;;;;20.90;74.10;;;20.24;69.18;96312.44;4291853;33;19902;-86
2022/06/05 02:19:49;;;;;;;;;;;20.90;74.00;;;20.26;69.34;96320.44;4291877;33;20093;-86
2022/06/05 02:22:23;;;;;;;;;;;20.90;74.00;;;20.26;69.28;96325.19;4291231;33;19901;-86
2022/06/05 02:24:52;;;;;;;;;;;20.90;74.00;;;20.24;68.74;96320.75;4290974;33;20084;-87
2022/06/05 02:27:24;;;;;;;;;;;20.90;74.80;;;20.25;68.90;96327.16;4291960;33;19970;-87
2022/06/05 02:29:53;;;;;;;;;;;20.90;74.10;;;20.25;69.19;96324.38;4291420;33;19908;-85
2022/06/05 02:32:42;;;;;;;;;;;20.90;74.10;;;20.24;69.19;96322.75;4267795;33;19901;-86
2022/06/05 02:35:20;;;;;;;;;;;20.90;74.10;;;20.24;68.98;96311.63;4267619;33;20129;-87
2022/06/05 02:37:59;;;;;;;;;;;20.90;74.20;;;20.24;69.22;96317.97;4267618;33;20117;-86
2022/06/05 02:40:34;;;;;;;;;;;20.90;74.00;;;20.23;69.00;96310.78;4267206;33;19908;-86
2022/06/05 02:43:07;;;;;;;;;;;20.90;74.00;;;20.24;69.22;96317.97;4267531;33;20240;-85
2022/06/05 02:45:42;;;;;;;;;;;20.90;74.00;;;20.24;68.79;96326.31;4291424;33;20250;-86
2022/06/05 02:48:15;;;;;;;;;;;20.90;74.00;;;20.23;69.18;96321.91;4267478;33;19901;-85
2022/06/05 02:50:46;;;;;;;;;;;20.90;74.10;;;20.25;68.88;96329.94;4291241;33;20137;-86
2022/06/05 02:53:15;;;;;;;;;;;20.90;74.10;;;20.23;69.09;96327.47;4267345;33;19910;-86
2022/06/05 02:55:44;;;;;;;;;;;20.90;74.10;;;20.23;69.14;96333.03;4291515;33;19901;-86
2022/06/05 02:58:14;;;;;;;;;;;20.90;74.10;;;20.23;69.09;96330.25;4291288;33;19902;-86
2022/06/05 03:03:27;;;;;;;;;;;20.90;74.10;;;20.22;69.08;96319.47;4267060;33;19901;-86
2022/06/05 03:03:32;;;;;;;;;;;20.90;74.10;;;20.24;69.00;96323.53;4267287;33;19901;-86
2022/06/05 03:06:02;;;;;;;;;;;20.90;74.10;;;20.24;69.15;96331.88;4267260;33;20114;-86
2022/06/05 03:08:31;;;;;;;;;;;20.90;74.10;;;20.24;69.16;96339.41;4267523;33;20213;-86
2022/06/05 03:10:59;;;;;;;;;;;20.90;74.10;;;20.24;69.01;96340.22;4266819;33;19908;-86
2022/06/05 03:13:30;;;;;;;;;;;20.90;74.10;;;20.24;69.07;96334.66;4291452;33;19901;-86
2022/06/05 03:15:58;;;;;;;;;;;20.90;74.20;;;20.24;69.27;96334.66;4291347;33;19909;-86
2022/06/05 03:18:27;;;;;;;;;;;20.90;74.30;;;20.23;69.18;96332.22;4291331;33;19902;-86
2022/06/05 03:20:59;;;;;;;;;;;20.90;74.30;;;20.25;69.46;96329.94;4266786;33;19901;-86
2022/06/05 03:23:28;;;;;;;;;;;20.90;74.30;;;20.25;69.17;96341.06;4292268;33;19901;-86
2022/06/05 03:25:57;;;;;;;;;;;20.90;74.30;;;20.26;69.31;96339.06;4266973;33;19909;-86
2022/06/05 03:28:25;;;;;;;;;;;20.90;74.30;;;20.26;69.37;96327.97;4291354;32;20133;-86
2022/06/05 03:30:55;;;;;;;;;;;20.90;74.30;;;20.26;69.33;96333.53;4290868;33;19902;-86
2022/06/05 03:33:24;;;;;;;;;;;20.90;74.30;;;20.26;69.26;96341.84;4291368;33;19959;-86
2022/06/05 03:35:53;;;;;;;;;;;20.90;74.30;;;20.24;69.11;96339.41;4291023;33;20031;-87
2022/06/05 03:38:22;;;;;;;;;;;20.90;74.30;;;20.23;69.68;96335.81;4291141;33;20383;-87
2022/06/05 03:40:50;;;;;;;;;;;20.90;74.40;;;20.26;69.33;96344.63;4290574;33;19902;-87
2022/06/05 03:43:19;;;;;;;;;;;20.90;74.30;;;20.27;69.13;96349.06;4290440;33;19901;-86
2022/06/05 03:45:49;;;;;;;;;;;21.00;74.30;;;20.26;69.42;96353.81;4290969;33;19901;-87
2022/06/05 03:48:19;;;;;;;;;;;20.90;74.40;;;20.27;69.39;96349.06;4266873;33;20030;-87
2022/06/05 03:50:48;;;;;;;;;;;20.90;74.40;;;20.27;69.27;96346.28;4266399;33;20239;-87
2022/06/05 03:53:17;;;;;;;;;;;20.90;74.40;;;20.27;69.10;96349.84;4290818;33;20105;-87
2022/06/05 03:55:46;;;;;;;;;;;21.00;74.40;;;20.26;69.39;96347.41;4266626;33;20143;-86
2022/06/05 03:58:15;;;;;;;;;;;21.00;74.40;;;20.26;69.32;96337.13;4290899;33;20070;-87
2022/06/05 04:00:43;;;;;;;;;;;21.00;74.40;;;20.28;69.08;96339.56;4290520;33;20155;-85
2022/06/05 04:03:12;;;;;;;;;;;21.00;74.40;;;20.27;69.28;96343.50;4266717;33;19901;-86
2022/06/05 04:05:42;;;;;;;;;;;21.00;74.40;;;20.27;69.30;96341.53;4290585;33;19902;-87
2022/06/05 04:08:14;;;;;;;;;;;21.00;74.40;;;20.28;69.32;96339.56;4265848;33;20261;-86
2022/06/05 04:10:43;;;;;;;;;;;21.00;74.40;;;20.29;69.39;96343.97;4289732;33;19902;-87
2022/06/05 04:13:11;;;;;;;;;;;21.00;74.40;;;20.31;69.38;96344.47;4266638;33;19906;-86
2022/06/05 04:15:40;;;;;;;;;;;21.00;74.40;;;20.32;69.19;96340.56;4266620;33;20139;-86
2022/06/05 04:18:09;;;;;;;;;;;21.00;74.40;;;20.33;69.28;96337.44;4266692;33;19905;-86
2022/06/05 04:20:39;;;;;;;;;;;21.00;74.30;;;20.35;69.11;96340.69;4290247;33;19901;-85
2022/06/05 04:23:10;;;;;;;;;;;21.00;74.40;;;20.34;69.23;96335.44;4290629;33;20041;-85
2022/06/05 04:25:42;;;;;;;;;;;21.10;74.50;;;20.36;69.59;96341.50;4266460;33;20031;-87
2022/06/05 04:28:11;;;;;;;;;;;21.10;74.60;;;20.38;69.25;96342.00;4266565;33;20086;-87
2022/06/05 04:30:40;;;;;;;;;;;21.10;74.50;;;20.38;69.29;96344.78;4289798;33;20048;-87
2022/06/05 04:33:08;;;;;;;;;;;21.10;74.40;;;20.38;69.26;96342.00;4266421;33;19908;-86
2022/06/05 04:35:37;;;;;;;;;;;21.10;74.40;;;20.39;69.32;96343.63;4314857;32;19905;-86
2022/06/05 04:38:08;;;;;;;;;;;21.10;74.30;;;20.38;69.27;96342.00;4290510;33;19910;-86
2022/06/05 04:40:36;;;;;;;;;;;21.10;74.20;;;20.40;69.43;96336.91;4265929;33;19908;-86
2022/06/05 04:43:14;;;;;;;;;;;21.10;74.30;;;20.42;69.40;96345.75;4266328;33;19931;-86
2022/06/05 04:45:43;;;;;;;;;;;21.10;74.50;;;20.44;69.41;96353.75;4290416;33;19909;-87
2022/06/05 04:48:12;;;;;;;;;;;21.10;74.40;;;20.45;69.33;96347.88;4290553;33;20102;-87
2022/06/05 04:50:43;;;;;;;;;;;21.10;74.50;;;20.46;69.71;96341.16;4289877;33;19925;-86
2022/06/05 04:53:13;;;;;;;;;;;21.20;75.40;;;20.48;69.66;96338.84;4266380;33;20150;-87
2022/06/05 04:55:42;;;;;;;;;;;21.20;74.80;;;20.49;69.27;96323.78;4314684;32;19909;-87
2022/06/05 04:58:10;;;;;;;;;;;21.20;74.20;;;20.53;68.98;96335.91;4290276;33;19901;-87
2022/06/05 05:00:40;;;;;;;;;;;21.20;74.00;;;20.56;68.88;96339.97;4265703;33;20059;-87
2022/06/05 05:03:09;;;;;;;;;;;21.30;74.00;;;20.58;69.00;96350.78;4265928;33;20029;-87
2022/06/05 05:05:37;;;;;;;;;;;21.30;73.80;;;20.57;68.69;96346.38;4290080;33;20009;-86
2022/06/05 05:08:07;;;;;;;;;;;21.30;73.70;;;20.57;68.64;96346.38;4265896;33;19927;-87
2022/06/05 05:10:37;;;;;;;;;;;21.30;73.60;;;20.56;68.66;96358.63;4265551;33;20077;-87
2022/06/05 05:13:06;;;;;;;;;;;21.30;73.60;;;20.56;68.67;96355.84;4265968;33;19901;-86
2022/06/05 05:15:35;;;;;;;;;;;21.20;73.60;;;20.54;68.43;96348.66;4289413;33;19991;-87
2022/06/05 05:18:04;;;;;;;;;;;21.20;73.60;;;20.53;68.82;96347.03;4265987;33;19901;-87
2022/06/05 05:20:32;;;;;;;;;;;21.20;73.60;;;20.51;68.79;96357.66;4289583;33;20117;-87
2022/06/05 05:23:01;;;;;;;;;;;21.20;73.60;;;20.50;68.90;96358.81;4292180;33;19909;-87
2022/06/05 05:25:30;;;;;;;;;;;21.20;73.70;;;20.49;68.73;96350.81;4293587;32;20156;-86
2022/06/05 05:28:00;;;;;;;;;;;21.20;73.80;;;20.50;68.94;96347.69;4268647;33;19901;-87
2022/06/05 05:30:29;;;;;;;;;;;21.20;73.90;;;20.49;68.95;96362.72;4292025;33;20033;-87
2022/06/05 05:32:58;;;;;;;;;;;21.20;73.90;;;20.49;68.95;96354.38;4268466;33;19901;-87
2022/06/05 05:35:27;;;;;;;;;;;21.20;74.00;;;20.49;68.98;96346.03;4263354;33;19909;-87
2022/06/05 05:37:56;;;;;;;;;;;21.20;73.90;;;20.50;69.04;96347.69;4263516;33;20030;-85
2022/06/05 05:43:11;;;;;;;;;;;21.20;74.00;;;20.53;69.07;96344.25;4263525;33;19902;-86
2022/06/05 05:45:40;;;;;;;;;;;21.20;74.00;;;20.55;68.96;96355.03;4266767;33;20106;-85
2022/06/05 05:48:10;;;;;;;;;;;21.20;74.00;;;20.59;69.21;96355.19;4268436;33;19902;-87
2022/06/05 05:50:39;;;;;;;;;;;21.30;74.30;;;20.62;68.78;96354.50;4267938;33;20431;-87
2022/06/05 05:53:07;;;;;;;;;;;21.30;73.90;;;20.64;68.90;96353.06;4267966;33;20132;-87
2022/06/05 05:55:36;;;;;;;;;;;21.30;73.90;;;20.65;68.63;96351.06;4292328;33;19959;-87
2022/06/05 05:58:05;;;;;;;;;;;21.40;73.60;;;20.67;68.61;96368.25;4267941;33;19948;-87
2022/06/05 06:00:35;;;;;;;;;;;21.40;73.50;;;20.66;68.62;96363.84;4267632;33;20212;-88
2022/06/05 06:03:04;;;;;;;;;;;21.30;73.50;;;20.65;68.59;96371.38;4292205;33;19908;-88
2022/06/05 06:05:32;;;;;;;;;;;21.40;73.60;;;20.66;68.86;96366.63;4292212;33;20092;-85
2022/06/05 06:08:01;;;;;;;;;;;21.30;73.50;;;20.65;68.64;96364.97;4293095;33;19946;-86
2022/06/05 06:10:30;;;;;;;;;;;21.40;73.50;;;20.66;68.55;96372.19;4293199;33;19909;-87
2022/06/05 06:12:59;;;;;;;;;;;21.40;73.50;;;20.63;68.80;96367.28;4291923;33;20136;-87
2022/06/05 06:15:27;;;;;;;;;;;21.40;73.50;;;20.67;68.51;96365.47;4267754;33;19901;-87
2022/06/05 06:17:57;;;;;;;;;;;21.40;73.50;;;20.68;68.60;96361.53;4293027;33;19901;-87
2022/06/05 06:20:26;;;;;;;;;;;21.40;73.50;;;20.70;68.29;96356.47;4267396;33;19905;-87
2022/06/05 06:22:55;;;;;;;;;;;21.40;73.60;;;20.70;68.54;96351.72;4291928;33;19920;-87
2022/06/05 06:25:23;;;;;;;;;;;21.40;73.60;;;20.77;68.50;96355.97;4262147;33;19910;-87
2022/06/05 06:27:52;;;;;;;;;;;21.40;73.50;;;20.79;68.31;96354.50;4238976;33;19908;-87
2022/06/05 06:30:21;;;;;;;;;;;21.40;73.20;;;20.81;68.21;96351.38;4262355;33;19956;-87
2022/06/05 06:32:49;;;;;;;;;;;21.50;73.20;;;20.83;68.37;96358.25;4263529;33;19902;-87
2022/06/05 06:35:20;;;;;;;;;;;21.50;73.10;;;20.82;68.21;96351.03;4251765;33;19901;-87
2022/06/05 06:37:48;;;;;;;;;;;21.50;73.00;;;20.82;68.25;96353.84;4267581;33;20372;-87
2022/06/05 06:40:18;;;;;;;;;;;21.50;73.00;;;20.80;68.22;96356.13;4267206;33;20100;-86
2022/06/05 06:42:46;;;;;;;;;;;21.50;73.10;;;20.80;68.18;96355.28;4292013;33;20091;-86
2022/06/05 06:45:15;;;;;;;;;;;21.50;73.20;;;20.81;68.27;96357.75;4291487;33;20128;-87
2022/06/05 06:47:44;;;;;;;;;;;21.50;73.30;;;20.85;68.33;96342.00;4267513;33;19920;-87
2022/06/05 06:50:13;;;;;;;;;;;21.50;73.30;;;20.89;68.24;96353.31;4291235;33;19901;-87
2022/06/05 06:52:43;;;;;;;;;;;21.50;73.20;;;20.95;68.25;96351.16;4267466;33;20229;-87
2022/06/05 06:55:13;;;;;;;;;;;21.60;73.10;;;21.00;67.70;96348.16;4267474;33;19901;-86
2022/06/05 06:57:41;;;;;;;;;;;21.60;72.80;;;21.03;67.75;96347.50;4291531;33;19901;-87
2022/06/05 07:00:14;;;;;;;;;;;21.70;72.70;;;21.06;67.52;96346.00;4291053;33;19905;-87
2022/06/05 07:02:43;;;;;;;;;;;21.70;72.50;;;21.09;67.55;96346.19;4267462;33;19901;-86
2022/06/05 07:05:11;;;;;;;;;;;21.70;72.40;;;21.09;67.39;96350.91;4291392;33;19902;-86
2022/06/05 07:07:41;;;;;;;;;;;21.80;72.30;;;21.11;67.42;96348.63;4291248;33;20064;-87
2022/06/05 07:10:11;;;;;;;;;;;21.80;72.30;;;21.13;67.74;96347.13;4266904;33;19905;-87
2022/06/05 07:12:40;;;;;;;;;;;21.80;72.40;;;21.16;67.34;96351.22;4267253;33;19909;-87
2022/06/05 07:15:10;;;;;;;;;;;21.80;72.20;;;21.19;67.30;96352.50;4267289;33;19902;-87
2022/06/05 07:17:39;;;;;;;;;;;21.90;72.20;;;21.17;67.22;96364.00;4291242;33;20067;-87
2022/06/05 07:20:09;;;;;;;;;;;21.80;72.00;;;21.16;67.42;96356.78;4266671;33;20157;-87
2022/06/05 07:22:37;;;;;;;;;;;21.80;72.00;;;21.15;67.16;96349.59;4267051;33;19901;-87
2022/06/05 07:25:08;;;;;;;;;;;21.90;72.20;;;21.13;67.48;96352.69;4291319;33;20236;-87
2022/06/05 07:27:46;;;;;;;;;;;21.80;72.10;;;21.10;67.52;96353.38;4291069;33;19956;-87
2022/06/05 07:30:42;;;;;;;;;;;21.80;72.20;;;21.09;67.57;96365.66;4266720;33;20082;-86
2022/06/05 07:33:24;;;;;;;;;;;21.80;72.20;;;21.08;67.74;96361.25;4266947;33;19901;-86
2022/06/05 07:35:57;;;;;;;;;;;21.80;72.40;;;21.06;67.82;96352.41;4262632;33;19901;-86
2022/06/05 07:38:26;;;;;;;;;;;21.70;72.50;;;21.04;67.55;96348.34;4291167;32;20338;-87
2022/06/05 07:40:56;;;;;;;;;;;21.80;72.50;;;21.05;67.68;96349.94;4290564;33;20075;-87
2022/06/05 07:43:25;;;;;;;;;;;21.70;72.60;;;21.04;67.70;96349.13;4266995;33;19934;-86
2022/06/05 07:46:03;;;;;;;;;;;21.70;72.70;;;21.03;67.92;96350.28;4266005;32;20213;-88
2022/06/05 07:48:32;;;;;;;;;;;21.70;72.70;;;21.05;67.77;96350.78;4291213;33;19901;-88
2022/06/05 07:56:52;;;;;;;;;;;21.70;72.70;;;21.09;67.75;96360.09;4291045;32;19916;-87
2022/06/05 07:59:32;;;;;;;;;;;21.80;72.60;;;21.08;67.72;96350.09;4291940;33;19912;-88
2022/06/05 08:02:14;;;;;;;;;;;21.70;72.60;;;21.11;67.54;96360.56;4290440;33;19908;-87
2022/06/05 08:08:50;;;;;;;;;;;21.80;72.50;;;21.11;67.58;96363.34;4211411;33;19902;-87
2022/06/05 08:11:20;;;;;;;;;;;21.80;72.40;;;21.11;67.59;96357.75;4285646;33;19902;-88
2022/06/05 08:14:11;;;;;;;;;;;21.80;72.50;;;21.13;67.72;96349.91;4237963;33;19917;-87
2022/06/05 08:16:43;;;;;;;;;;;21.80;72.50;;;21.14;66.97;96345.16;4237951;33;20071;-88
2022/06/05 08:19:12;;;;;;;;;;;21.80;72.40;;;21.15;67.56;96344.81;4261642;33;20163;-87
2022/06/05 08:21:53;;;;;;;;;;;21.80;72.30;;;21.14;67.39;96332.03;4261379;33;19908;-88
2022/06/05 08:24:21;;;;;;;;;;;21.80;72.30;;;21.15;67.54;96344.81;4237802;33;19909;-88
2022/06/05 08:26:51;;;;;;;;;;;21.80;73.10;;;21.14;67.53;96343.19;4261626;33;20222;-86
2022/06/05 08:29:21;;;;;;;;;;;21.80;72.40;;;21.13;67.56;96341.56;4261650;33;20203;-87
2022/06/05 08:31:49;;;;;;;;;;;21.80;72.40;;;21.14;67.51;96337.63;4268420;33;19905;-87
2022/06/05 08:34:26;;;;;;;;;;;21.80;72.40;;;21.15;67.62;96333.69;4290585;33;20001;-86
2022/06/05 08:44:00;;;;;;;;;;;;;;;;;;;;;
2022/06/05 08:46:42;;;;;;;;;;;21.90;72.20;;;21.21;67.42;96336.28;4266346;33;20023;-87
2022/06/05 08:49:14;;;;;;;;;;;21.90;72.20;;;21.20;67.46;96337.44;4290362;33;20117;-87
2022/06/05 08:51:50;;;;;;;;;;;21.90;72.20;;;21.18;67.23;96336.94;4289795;33;19916;-87
2022/06/05 08:54:21;;;;;;;;;;;21.90;72.30;;;21.15;67.65;96330.91;4290224;33;19913;-88
2022/06/05 08:56:51;;;;;;;;;;;21.90;72.40;;;21.13;67.37;96319.28;4267100;33;20101;-87
2022/06/05 08:59:24;;;;;;;;;;;21.80;72.30;;;21.14;67.37;96326.47;4268544;33;20017;-88
2022/06/05 09:01:59;;;;;;;;;;;21.90;72.50;;;21.14;67.43;96320.91;4268314;33;20117;-88
2022/06/05 09:04:48;;;;;;;;;;;21.90;72.50;;;21.17;67.54;96318.63;4292957;33;19908;-87
2022/06/05 09:07:18;;;;;;;;;;;21.90;72.40;;;21.16;67.71;96317.81;4293731;33;20080;-87
2022/06/05 09:09:50;;;;;;;;;;;21.90;72.50;;;21.13;67.73;96308.16;4268770;33;19985;-86
2022/06/05 09:12:29;;;;;;;;;;;21.90;72.50;;;21.15;67.74;96321.75;4268567;33;20078;-87
2022/06/05 09:15:04;;;;;;;;;;;21.80;72.30;;;21.13;67.96;96312.91;4268442;33;19903;-86
2022/06/05 09:17:39;;;;;;;;;;;21.80;72.40;;;21.13;67.82;96312.91;4268785;33;20038;-87
2022/06/05 09:20:13;;;;;;;;;;;21.80;73.30;;;21.11;67.59;96304.06;4268054;33;19910;-87
2022/06/05 09:22:45;;;;;;;;;;;21.80;72.50;;;21.10;67.76;96303.28;4268610;33;19908;-87
2022/06/05 09:25:44;;;;;;;;;;;21.80;72.50;;;21.10;67.77;96308.84;4293552;33;19901;-87
2022/06/05 09:28:40;;;;;;;;;;;21.80;72.60;;;21.12;67.76;96303.72;4289870;33;20247;-87
2022/06/05 09:31:27;;;;;;;;;;;21.80;72.50;;;21.14;67.79;96314.53;4279455;33;19902;-87
2022/06/05 09:33:58;;;;;;;;;;;21.80;72.50;;;21.13;67.71;96313.72;4292464;33;19912;-87
2022/06/05 09:36:27;;;;;;;;;;;21.80;72.50;;;21.12;67.62;96312.06;4293428;33;19908;-87
2022/06/05 09:38:58;;;;;;;;;;;21.90;72.60;;;21.13;67.87;96310.94;4292534;33;19975;-86
2022/06/05 09:41:37;;;;;;;;;;;21.80;72.50;;;21.13;67.85;96312.91;4292149;33;20146;-88
2022/06/05 09:44:23;;;;;;;;;;;21.80;72.50;;;21.11;67.62;96301.28;4292494;33;19902;-88
2022/06/05 09:47:06;;;;;;;;;;;21.80;72.50;;;21.12;67.86;96306.50;4268441;33;19904;-87
2022/06/05 09:49:38;;;;;;;;;;;21.80;72.50;;;21.13;67.96;96315.69;4268247;33;20124;-87
2022/06/05 09:52:13;;;;;;;;;;;21.80;72.60;;;21.12;67.86;96312.06;4267822;33;19909;-87
2022/06/05 09:54:46;;;;;;;;;;;21.80;72.60;;;21.11;67.80;96301.28;4293464;33;20117;-88
2022/06/05 10:00:30;;;;;;;;;;;21.80;72.60;;;21.12;67.93;96302.94;4291830;33;19937;-87
2022/06/05 10:03:02;;;;;;;;;;;21.80;72.70;;;21.13;67.94;96304.56;4291999;33;19901;-87
2022/06/05 10:09:52;;;;;;;;;;;21.80;72.60;;;21.14;67.80;96315.34;4267230;33;19909;-87
2022/06/05 10:12:25;;;;;;;;;;;21.90;72.70;;;21.16;67.77;96303.91;4268187;33;20144;-86
2022/06/05 10:14:58;;;;;;;;;;;21.90;72.60;;;21.15;67.65;96300.28;4292097;33;19908;-88
2022/06/05 10:17:44;;;;;;;;;;;21.90;72.50;;;21.17;67.79;96313.03;4292008;33;19901;-88
2022/06/05 10:20:50;;;;;;;;;;;21.90;72.60;;;21.18;67.88;96303.53;4291741;32;20092;-87
2022/06/05 10:23:32;;;;;;;;;;;21.90;72.60;;;21.18;67.77;96297.97;4267973;33;19902;-87
2022/06/05 10:26:18;;;;;;;;;;;21.90;72.60;;;21.18;67.80;96282.06;4267821;33;19901;-86
2022/06/05 10:28:48;;;;;;;;;;;21.90;72.60;;;21.19;67.72;96282.91;4293061;33;19901;-87
2022/06/05 10:31:25;;;;;;;;;;;21.90;72.50;;;21.19;67.85;96277.34;4267287;33;19901;-87
2022/06/05 10:34:03;;;;;;;;;;;21.90;72.50;;;21.15;67.59;96272.44;4292094;33;19901;-86
2022/06/05 10:36:52;;;;;;;;;;;21.90;72.50;;;21.16;67.79;96267.69;4291826;32;20152;-87
2022/06/05 10:39:26;;;;;;;;;;;21.90;72.50;;;21.15;67.86;96271.63;4267775;33;20207;-87
2022/06/05 10:42:16;;;;;;;;;;;21.90;72.50;;;21.13;67.89;96274.75;4267293;33;19949;-87
2022/06/05 10:44:54;;;;;;;;;;;21.90;72.70;;;21.13;67.98;96280.31;4291818;33;19908;-87
2022/06/05 10:47:34;;;;;;;;;;;21.90;72.80;;;21.12;68.03;96286.22;4267727;33;20307;-88
2022/06/05 10:50:10;;;;;;;;;;;21.80;72.70;;;21.09;67.98;96267.41;4291194;33;19982;-88
2022/06/05 10:52:43;;;;;;;;;;;21.80;72.70;;;21.08;68.07;96255.47;4267636;33;19942;-88
2022/06/05 10:55:39;;;;;;;;;;;21.80;73.60;;;21.07;68.16;96262.19;4267574;33;19901;-87
2022/06/05 10:58:15;;;;;;;;;;;21.80;72.80;;;21.08;68.30;96266.59;4254395;33;20041;-87
2022/06/05 11:01:05;;;;;;;;;;;21.80;72.80;;;21.09;68.19;96271.03;4291223;33;20144;-87
2022/06/05 11:03:47;;;;;;;;;;;21.80;72.90;;;21.08;67.96;96266.59;4291574;33;19902;-86
2022/06/05 11:06:27;;;;;;;;;;;21.80;72.90;;;21.08;68.12;96263.81;4267439;33;19915;-87
2022/06/05 11:09:15;;;;;;;;;;;21.80;72.90;;;21.07;68.17;96262.19;4267560;33;20063;-86
2022/06/05 11:14:46;;;;;;;;;;;21.70;72.90;;;21.03;68.04;96283.50;4267211;33;19902;-87
2022/06/05 11:17:27;;;;;;;;;;;21.70;73.10;;;21.00;68.45;96281.38;4291348;33;20014;-87
2022/06/05 11:20:06;;;;;;;;;;;21.70;73.10;;;20.98;68.42;96295.63;4291676;33;20199;-86
2022/06/05 11:22:35;;;;;;;;;;;21.70;73.20;;;20.97;68.53;96301.53;4291344;33;19902;-87
2022/06/05 11:25:25;;;;;;;;;;;21.70;73.30;;;20.96;68.49;96305.47;4267365;33;19901;-87
2022/06/05 11:28:33;;;;;;;;;;;21.60;73.30;;;20.95;68.58;96298.28;4267416;33;19909;-86
2022/06/05 11:31:17;;;;;;;;;;;21.60;73.30;;;20.92;68.53;96288.63;4266774;33;19902;-86
2022/06/05 11:33:56;;;;;;;;;;;21.60;73.40;;;20.91;68.83;96294.53;4291272;33;19901;-86
2022/06/05 11:36:29;;;;;;;;;;;21.60;73.60;;;20.89;68.65;96296.81;4267038;33;19901;-86
2022/06/05 11:39:24;;;;;;;;;;;21.50;73.60;;;20.88;68.94;96282.13;4267140;33;19982;-86
2022/06/05 11:42:05;;;;;;;;;;;21.60;73.70;;;20.87;68.61;96274.09;4261665;33;19902;-87
2022/06/05 11:44:38;;;;;;;;;;;21.60;73.60;;;20.85;68.64;96275.22;4262215;33;20205;-87
2022/06/05 11:47:11;;;;;;;;;;;21.50;73.60;;;20.85;68.86;96280.78;4238247;33;20002;-87
2022/06/05 11:49:52;;;;;;;;;;;21.50;73.70;;;20.84;68.63;96270.84;4262334;33;20370;-87
2022/06/05 11:52:29;;;;;;;;;;;21.50;73.60;;;20.84;68.84;96279.19;4262154;33;19909;-87
2022/06/05 11:55:05;;;;;;;;;;;21.50;73.80;;;20.83;68.87;96283.13;4262134;33;20222;-87
2022/06/05 11:57:39;;;;;;;;;;;21.50;73.80;;;20.83;69.16;96299.00;4238264;33;19916;-87
2022/06/05 12:00:14;;;;;;;;;;;21.50;73.90;;;20.84;68.79;96297.84;4237764;33;19909;-87
2022/06/05 12:02:56;;;;;;;;;;;21.50;73.80;;;20.85;68.83;96297.50;4261994;33;20079;-87
2022/06/05 12:05:32;;;;;;;;;;;21.50;73.80;;;20.85;68.76;96296.69;4238084;33;20207;-87
2022/06/05 12:08:04;;;;;;;;;;;21.50;73.80;;;20.87;69.00;96299.13;4261940;33;20037;-87
2022/06/05 12:10:33;;;;;;;;;;;21.60;73.80;;;20.87;68.97;96293.56;4261616;33;19905;-88
2022/06/05 12:13:14;;;;;;;;;;;21.60;73.80;;;20.88;69.00;96300.75;4261845;33;20156;-88
2022/06/05 12:15:52;;;;;;;;;;;21.60;73.70;;;20.89;68.60;96302.41;4262725;33;20039;-88
2022/06/05 12:18:32;;;;;;;;;;;21.60;74.60;;;20.89;68.47;96305.19;4262025;33;19968;-88